地図

経路データ

SID SEASON NUMBER BASIN SUBBASIN NAME ISO_TIME NATURE LAT LON WMO_WIND WMO_PRES WMO_AGENCY TRACK_TYPE DIST2LAND LANDFALL IFLAG USA_AGENCY USA_ATCF_ID USA_LAT USA_LON USA_RECORD USA_STATUS USA_WIND USA_PRES USA_SSHS USA_R34_NE USA_R34_SE USA_R34_SW USA_R34_NW USA_R50_NE USA_R50_SE USA_R50_SW USA_R50_NW USA_R64_NE USA_R64_SE USA_R64_SW USA_R64_NW USA_POCI USA_ROCI USA_RMW USA_EYE TOKYO_LAT TOKYO_LON TOKYO_GRADE TOKYO_WIND TOKYO_PRES TOKYO_R50_DIR TOKYO_R50_LONG TOKYO_R50_SHORT TOKYO_R30_DIR TOKYO_R30_LONG TOKYO_R30_SHORT TOKYO_LAND CMA_LAT CMA_LON CMA_CAT CMA_WIND CMA_PRES HKO_LAT HKO_LON HKO_CAT HKO_WIND HKO_PRES NEWDELHI_LAT NEWDELHI_LON NEWDELHI_GRADE NEWDELHI_WIND NEWDELHI_PRES NEWDELHI_CI NEWDELHI_DP NEWDELHI_POCI REUNION_LAT REUNION_LON REUNION_TYPE REUNION_WIND REUNION_PRES REUNION_TNUM REUNION_CI REUNION_RMW REUNION_R34_NE REUNION_R34_SE REUNION_R34_SW REUNION_R34_NW REUNION_R50_NE REUNION_R50_SE REUNION_R50_SW REUNION_R50_NW REUNION_R64_NE REUNION_R64_SE REUNION_R64_SW REUNION_R64_NW BOM_LAT BOM_LON BOM_TYPE BOM_WIND BOM_PRES BOM_TNUM BOM_CI BOM_RMW BOM_R34_NE BOM_R34_SE BOM_R34_SW BOM_R34_NW BOM_R50_NE BOM_R50_SE BOM_R50_SW BOM_R50_NW BOM_R64_NE BOM_R64_SE BOM_R64_SW BOM_R64_NW BOM_ROCI BOM_POCI BOM_EYE BOM_POS_METHOD BOM_PRES_METHOD NADI_LAT NADI_LON NADI_CAT NADI_WIND NADI_PRES WELLINGTON_LAT WELLINGTON_LON WELLINGTON_WIND WELLINGTON_PRES DS824_LAT DS824_LON DS824_STAGE DS824_WIND DS824_PRES TD9636_LAT TD9636_LON TD9636_STAGE TD9636_WIND TD9636_PRES TD9635_LAT TD9635_LON TD9635_WIND TD9635_PRES TD9635_ROCI NEUMANN_LAT NEUMANN_LON NEUMANN_CLASS NEUMANN_WIND NEUMANN_PRES MLC_LAT MLC_LON MLC_CLASS MLC_WIND MLC_PRES USA_GUST BOM_GUST BOM_GUST_PER REUNION_GUST REUNION_GUST_PER USA_SEAHGT USA_SEARAD_NE USA_SEARAD_SE USA_SEARAD_SW USA_SEARAD_NW STORM_SPEED STORM_DIR
1895165N18070 1895 12 NI AS NOT_NAMED 1895-06-14 00:00:00 TS 18.1000 69.5000 main 321 311 _________O____ -1 18.1000 69.5000 TC 34 3 333
1895165N18070 1895 12 NI AS NOT_NAMED 1895-06-14 03:00:00 TS 18.2317 69.4267 main 315 296 _________PO___ -1 18.2975 69.3901 TC 36 18.1000 69.5000 2 4 337
1895165N18070 1895 12 NI AS NOT_NAMED 1895-06-14 06:00:00 TS 18.4250 69.3470 main 301 282 _________OP___ -1 18.5000 69.3000 TC 39 18.3125 69.4174 2 4 341
1895165N18070 1895 12 NI AS NOT_NAMED 1895-06-14 09:00:00 TS 18.6272 69.2833 main 282 270 _________PP___ -1 18.7075 69.2425 TC 42 18.5201 69.3377 2 4 344
1895165N18070 1895 12 NI AS NOT_NAMED 1895-06-14 12:00:00 TS 18.8088 69.2321 main 270 252 _________OP___ -1 18.9000 69.2000 TC 45 18.7175 69.2642 2 4 343
1895165N18070 1895 12 NI AS NOT_NAMED 1895-06-14 15:00:00 TS 18.9787 69.1750 main 252 248 _________PO___ -1 19.0575 69.1500 TC 45 18.9000 69.2000 3 3 342
1895165N18070 1895 12 NI AS NOT_NAMED 1895-06-14 18:00:00 TS 19.1322 69.1234 main 248 231 _________OP___ -1 19.2000 69.1000 TC 45 19.0643 69.1468 3 3 342
1895165N18070 1895 12 NI AS NOT_NAMED 1895-06-14 21:00:00 TS 19.2825 69.0749 main 231 222 _________PP___ -1 19.3500 69.0500 TC 45 19.2150 69.0998 3 3 344
1895165N18070 1895 12 NI AS NOT_NAMED 1895-06-15 00:00:00 TS 19.4290 69.0265 main 227 209 _________OP___ -1 19.5000 69.0000 TC 45 19.3581 69.0530 3 3 343
1895165N18070 1895 12 NI AS NOT_NAMED 1895-06-15 03:00:00 TS 19.5750 68.9787 main 209 207 _________PO___ -1 19.6500 68.9575 TC 45 19.5000 69.0000 3 3 341
1895165N18070 1895 12 NI AS NOT_NAMED 1895-06-15 06:00:00 TS 19.7230 68.9141 main 207 198 _________OP___ -1 19.8000 68.9000 TC 45 19.6460 68.9281 3 3 334
1895165N18070 1895 12 NI AS NOT_NAMED 1895-06-15 09:00:00 TS 19.8713 68.8250 main 198 190 _________PP___ -1 19.9500 68.8000 TC 45 19.7925 68.8500 3 3 331
1895165N18070 1895 12 NI AS NOT_NAMED 1895-06-15 12:00:00 TS 20.0214 68.7359 main 198 182 _________OP___ -1 20.1000 68.7000 TC 45 19.9428 68.7719 3 3 335
1895165N18070 1895 12 NI AS NOT_NAMED 1895-06-15 15:00:00 TS 20.1712 68.6712 main 182 182 _________PO___ -1 20.2425 68.6425 TC 45 20.1000 68.7000 3 3 342
1895165N18070 1895 12 NI AS NOT_NAMED 1895-06-15 18:00:00 TS 20.3339 68.6254 main 182 167 _________OP___ -1 20.4000 68.6000 TC 45 20.2678 68.6508 3 4 346
1895165N18070 1895 12 NI AS NOT_NAMED 1895-06-15 21:00:00 TS 20.5175 68.5824 main 167 159 _________PP___ -1 20.5925 68.5575 TC 45 20.4424 68.6073 3 4 346
1895165N18070 1895 12 NI AS NOT_NAMED 1895-06-16 00:00:00 TS 20.7104 68.5301 main 159 144 _________OP___ -1 20.8000 68.5000 TC 45 20.6209 68.5602 3 4 343
1895165N18070 1895 12 NI AS NOT_NAMED 1895-06-16 03:00:00 TS 20.9038 68.4538 main 144 136 _________PO___ -1 21.0075 68.4075 TC 45 20.8000 68.5000 3 4 339
1895165N18070 1895 12 NI AS NOT_NAMED 1895-06-16 06:00:00 TS 21.0894 68.3713 main 136 136 _________OP___ -1 21.2000 68.3000 TC 45 20.9789 68.4426 3 4 337
1895165N18070 1895 12 NI AS NOT_NAMED 1895-06-16 09:00:00 TS 21.2573 68.2948 main 127 123 _________PP___ -1 21.3574 68.2224 TC 45 21.1572 68.3672 3 4 331
1895165N18070 1895 12 NI AS NOT_NAMED 1895-06-16 12:00:00 TS 21.4160 68.1791 main 123 121 _________OP___ -1 21.5000 68.1000 TC 45 21.3319 68.2582 3 4 318
1895165N18070 1895 12 NI AS NOT_NAMED 1895-06-16 15:00:00 TS 21.5750 67.9900 main 121 121 _________PO___ -1 21.6500 67.8800 TC 45 21.5000 68.1000 3 5 304
1895165N18070 1895 12 NI AS NOT_NAMED 1895-06-16 18:00:00 TS 21.7024 67.7253 main 140 140 _________OP___ -1 21.8000 67.6000 TC 45 21.6048 67.8506 3 6 294
1895165N18070 1895 12 NI AS NOT_NAMED 1895-06-16 21:00:00 TS 21.8079 67.4210 main 164 164 _________PP___ -1 21.9051 67.2848 TC 45 21.7106 67.5571 3 6 297
1895165N18070 1895 12 NI AS NOT_NAMED 1895-06-17 00:00:00 TS 21.9805 67.1300 main 188 182 _________OP___ -1 22.1000 67.0000 TC 45 21.8611 67.2600 3 7 316
1895165N18070 1895 12 NI AS NOT_NAMED 1895-06-17 03:00:00 TS 22.2987 66.9100 main 182 147 _________PO___ -1 22.4974 66.8200 TC 45 22.1000 67.0000 3 8 338
1895165N18070 1895 12 NI AS NOT_NAMED 1895-06-17 06:00:00 TS 22.7586 66.7959 main 138 112 _________OP___ -1 23.0000 66.7000 TC 45 22.5173 66.8917 3 10 350
1895165N18070 1895 12 NI AS NOT_NAMED 1895-06-17 09:00:00 TS 23.2667 66.7301 main 105 84 _________PP___ -1 23.5148 66.6444 TC 45 23.0186 66.8158 3 10 350
1895165N18070 1895 12 NI AS NOT_NAMED 1895-06-17 12:00:00 TS 23.7679 66.6036 main 84 78 _________OP___ -1 24.0000 66.5000 TC 45 23.5357 66.7072 3 10 338
1895165N18070 1895 12 NI AS NOT_NAMED 1895-06-17 15:00:00 TS 24.2013 66.3089 main 78 68 _________PO___ -1 24.4025 66.1178 TC 45 24.0000 66.5000 3 10 319
1895165N18070 1895 12 NI AS NOT_NAMED 1895-06-17 18:00:00 TS 24.5051 65.9118 main 87 70 _________OP___ -1 24.7000 65.6000 TC 45 24.3589 66.1457 3 10 303
1895165N18070 1895 12 NI AS NOT_NAMED 1895-06-17 21:00:00 TS 24.7284 65.4211 main 70 39 _________PP___ -1 24.8828 65.0524 TC 45 24.6255 65.6670 3 10 293
1895165N18070 1895 12 NI AS NOT_NAMED 1895-06-18 00:00:00 TS 24.8861 64.9031 main 39 22 _________OP___ -1 25.0000 64.5000 TC 45 24.8292 65.1047 3 9 288
1895165N18070 1895 12 NI AS NOT_NAMED 1895-06-18 03:00:00 NR 25.0000 64.5000 main 24 __________O___ -1 TC 25.0000 64.5000 3 8 287

IBTrACS Databaseについて

本データベースは、米国NOAAが公開する1842年以降の世界の熱帯低気圧のベストトラックデータアーカイブInternational Best Track Archive for Climate Stewardship (IBTrACS)を、ウェブで閲覧しやすい形式に変換したものです。

最終更新日:2021-11-26